createdAt,value
2018-05-25T00:00:42.907Z,12.07
2018-05-25T00:03:10.463Z,12.47
2018-05-25T00:05:37.908Z,10.87
2018-05-25T00:08:05.466Z,11.70
2018-05-25T00:10:32.937Z,11.50
2018-05-25T00:13:00.384Z,12.00
2018-05-25T00:15:27.955Z,11.50
2018-05-25T00:17:55.496Z,12.50
2018-05-25T00:20:23.061Z,11.37
2018-05-25T00:22:50.515Z,11.97
2018-05-25T00:25:17.994Z,12.37
2018-05-25T00:27:46.948Z,11.87
2018-05-25T00:30:14.732Z,12.37
2018-05-25T00:32:42.278Z,11.57
2018-05-25T00:35:09.738Z,12.37
2018-05-25T00:37:37.300Z,11.83
2018-05-25T00:40:04.765Z,11.57
2018-05-25T00:42:32.421Z,11.87
2018-05-25T00:44:59.889Z,11.90
2018-05-25T00:47:27.344Z,12.03
2018-05-25T00:49:55.005Z,12.10
2018-05-25T00:52:22.540Z,12.33
2018-05-25T00:55:01.986Z,12.43
2018-05-25T00:57:29.521Z,11.87
2018-05-25T00:59:57.117Z,12.50
2018-05-25T01:02:24.783Z,12.23
2018-05-25T01:04:52.421Z,12.37
2018-05-25T01:07:19.966Z,12.00
2018-05-25T01:09:47.521Z,12.43
2018-05-25T01:12:15.200Z,12.63
2018-05-25T01:14:42.764Z,12.50
2018-05-25T01:17:10.272Z,12.40
2018-05-25T01:19:38.540Z,12.13
2018-05-25T01:22:06.891Z,12.23
2018-05-25T01:24:34.350Z,11.93
2018-05-25T01:27:03.445Z,12.50
2018-05-25T01:29:30.952Z,12.93
2018-05-25T01:31:58.410Z,12.27
2018-05-25T01:34:25.883Z,11.97
2018-05-25T01:36:53.407Z,12.30
2018-05-25T01:39:21.112Z,12.57
2018-05-25T01:41:48.666Z,12.53
2018-05-25T01:44:16.127Z,12.83
2018-05-25T01:46:43.599Z,12.67
2018-05-25T01:49:11.359Z,12.80
2018-05-25T01:51:39.004Z,13.17
2018-05-25T01:54:06.551Z,12.07
2018-05-25T01:56:34.008Z,12.73
2018-05-25T01:59:01.595Z,12.40
2018-05-25T02:01:29.056Z,12.57
2018-05-25T02:03:56.599Z,12.90
2018-05-25T02:06:24.054Z,12.60
2018-05-25T02:08:51.556Z,13.23
2018-05-25T02:11:19.779Z,13.80
2018-05-25T02:13:47.239Z,13.50
2018-05-25T02:16:14.680Z,13.73
2018-05-25T02:18:42.200Z,13.07
2018-05-25T02:21:10.532Z,12.97
2018-05-25T02:23:38.074Z,12.67
2018-05-25T02:26:05.526Z,12.70
2018-05-25T02:28:33.046Z,12.30
2018-05-25T02:31:01.352Z,13.20
2018-05-25T02:33:29.033Z,13.77
2018-05-25T02:35:56.601Z,13.47
2018-05-25T02:38:24.375Z,13.80
2018-05-25T02:40:52.038Z,12.93
2018-05-25T02:43:21.126Z,13.23
2018-05-25T02:45:48.654Z,13.90
2018-05-25T02:48:16.251Z,14.27
2018-05-25T02:50:43.773Z,13.83
2018-05-25T02:53:11.236Z,14.70
2018-05-25T02:55:38.800Z,13.80
2018-05-25T02:58:06.475Z,13.37
2018-05-25T03:00:33.962Z,13.83
2018-05-25T03:03:01.454Z,13.87
2018-05-25T03:05:29.041Z,13.47
2018-05-25T03:07:56.711Z,14.20
2018-05-25T03:10:25.679Z,13.07
2018-05-25T03:12:53.255Z,14.23
2018-05-25T03:15:20.922Z,14.17
2018-05-25T03:17:48.382Z,14.03
2018-05-25T03:20:16.024Z,14.40
2018-05-25T03:22:43.657Z,14.33
2018-05-25T03:25:11.119Z,14.60
2018-05-25T03:27:38.619Z,14.73
2018-05-25T03:30:06.084Z,14.70
2018-05-25T03:32:33.581Z,15.23
2018-05-25T03:35:01.072Z,15.37
2018-05-25T03:37:30.275Z,14.85
2018-05-25T03:39:57.814Z,15.17
2018-05-25T03:42:25.291Z,14.37
2018-05-25T03:44:52.733Z,15.10
2018-05-25T03:47:20.186Z,15.07
2018-05-25T03:49:47.827Z,15.30
2018-05-25T03:52:15.293Z,14.90
2018-05-25T03:54:42.745Z,14.93
2018-05-25T03:57:10.323Z,14.67
2018-05-25T03:59:49.864Z,16.30
2018-05-25T04:02:18.356Z,15.63
2018-05-25T04:04:45.878Z,14.87
2018-05-25T04:07:13.342Z,15.30
2018-05-25T04:09:40.908Z,14.83
2018-05-25T04:12:08.464Z,14.70
2018-05-25T04:14:35.915Z,15.60
2018-05-25T04:17:03.374Z,13.57
2018-05-25T04:19:31.158Z,14.63
2018-05-25T04:21:58.818Z,15.17
2018-05-25T04:24:26.345Z,14.63
2018-05-25T04:26:53.943Z,14.20
2018-05-25T04:29:23.032Z,15.70
2018-05-25T04:31:50.691Z,14.50
2018-05-25T04:34:18.343Z,14.97
2018-05-25T04:36:45.884Z,14.53
2018-05-25T04:39:13.417Z,13.60
2018-05-25T04:41:40.884Z,14.30
2018-05-25T04:44:08.370Z,13.40
2018-05-25T04:46:36.032Z,14.13
2018-05-25T04:49:03.496Z,13.63
2018-05-25T04:51:31.163Z,13.23
2018-05-25T04:54:00.241Z,13.90
2018-05-25T04:56:27.926Z,13.60
2018-05-25T04:58:56.191Z,14.10
2018-05-25T05:01:23.835Z,13.83
2018-05-25T05:03:51.292Z,12.67
2018-05-25T05:06:18.773Z,12.97
2018-05-25T05:08:48.072Z,14.30
2018-05-25T05:11:17.018Z,13.30
2018-05-25T05:13:44.479Z,14.03
2018-05-25T05:16:11.935Z,13.50
2018-05-25T05:18:39.555Z,13.47
2018-05-25T05:21:07.015Z,13.37
2018-05-25T05:23:34.463Z,13.83
2018-05-25T05:26:01.959Z,13.30
2018-05-25T05:28:29.580Z,12.70
2018-05-25T05:30:57.037Z,12.88
2018-05-25T05:33:24.555Z,13.37
2018-05-25T05:35:52.116Z,13.60
2018-05-25T05:38:19.776Z,13.37
2018-05-25T05:40:47.485Z,13.60
2018-05-25T05:43:15.123Z,14.07
2018-05-25T05:45:42.752Z,13.47
2018-05-25T05:48:10.299Z,13.40
2018-05-25T05:50:37.753Z,13.97
2018-05-25T05:53:05.214Z,12.97
2018-05-25T05:55:32.673Z,13.33
2018-05-25T05:58:00.130Z,13.97
2018-05-25T06:00:27.712Z,14.60
2018-05-25T06:02:55.238Z,13.97
2018-05-25T06:05:22.693Z,13.73
2018-05-25T06:07:50.171Z,13.07
2018-05-25T06:10:17.734Z,13.90
2018-05-25T06:12:45.181Z,13.60
2018-05-25T06:15:12.793Z,13.90
2018-05-25T06:17:41.115Z,14.37
2018-05-25T06:20:08.787Z,13.87
2018-05-25T06:22:36.348Z,14.97
2018-05-25T06:25:03.785Z,14.40
2018-05-25T06:27:31.250Z,14.40
2018-05-25T06:29:58.753Z,14.53
2018-05-25T06:32:27.104Z,15.17
2018-05-25T06:34:54.631Z,14.57
2018-05-25T06:37:22.083Z,15.33
2018-05-25T06:39:49.694Z,15.20
2018-05-25T06:42:17.174Z,16.43
2018-05-25T06:44:44.627Z,15.73
2018-05-25T06:47:12.225Z,15.20
2018-05-25T06:49:39.893Z,15.37
2018-05-25T06:52:07.437Z,16.30
2018-05-25T06:54:35.024Z,16.27
2018-05-25T06:57:02.668Z,15.87
2018-05-25T06:59:30.343Z,15.87
2018-05-25T07:01:57.872Z,16.50
2018-05-25T07:04:25.448Z,16.67
2018-05-25T07:06:53.126Z,15.73
2018-05-25T07:09:20.692Z,16.23
2018-05-25T07:11:48.147Z,16.83
2018-05-25T07:14:15.701Z,17.23
2018-05-25T07:16:43.359Z,17.27
2018-05-25T07:19:12.452Z,16.80
2018-05-25T07:21:40.110Z,16.67
2018-05-25T07:24:07.569Z,16.60
2018-05-25T07:26:35.027Z,15.93
2018-05-25T07:29:02.664Z,16.97
2018-05-25T07:31:30.222Z,17.20
2018-05-25T07:33:57.781Z,17.07
2018-05-25T07:36:25.248Z,17.67
2018-05-25T07:38:52.919Z,17.17
2018-05-25T07:41:20.365Z,17.67
2018-05-25T07:43:48.019Z,17.37
2018-05-25T07:46:15.698Z,17.63
2018-05-25T07:48:43.334Z,17.53
2018-05-25T07:51:10.893Z,17.47
2018-05-25T07:53:38.471Z,18.53
2018-05-25T07:56:05.992Z,18.53
2018-05-25T07:58:33.601Z,17.93
2018-05-25T08:01:01.238Z,19.73
2018-05-25T08:03:28.703Z,19.10
2018-05-25T08:05:56.368Z,19.63
2018-05-25T08:08:24.035Z,18.93
2018-05-25T08:10:51.504Z,18.10
2018-05-25T08:13:18.948Z,17.67
2018-05-25T08:15:46.478Z,19.90
2018-05-25T08:18:14.056Z,19.20
2018-05-25T08:20:41.594Z,20.37
2018-05-25T08:23:09.145Z,20.63
2018-05-25T08:25:36.608Z,19.50
2018-05-25T08:28:04.067Z,20.00
2018-05-25T08:30:31.530Z,20.97
2018-05-25T08:32:59.198Z,21.03
2018-05-25T08:35:26.851Z,19.80
2018-05-25T08:37:54.516Z,22.33
2018-05-25T08:40:22.183Z,20.53
2018-05-25T08:42:49.843Z,20.77
2018-05-25T08:45:17.310Z,21.70
2018-05-25T08:47:45.637Z,20.70
2018-05-25T08:50:13.180Z,22.13
2018-05-25T08:52:40.685Z,21.70
2018-05-25T08:55:08.385Z,21.57
2018-05-25T08:57:36.026Z,21.60
2018-05-25T09:00:05.115Z,21.10
2018-05-25T09:02:32.768Z,21.80
2018-05-25T09:05:00.315Z,20.57
2018-05-25T09:07:27.870Z,21.30
2018-05-25T09:09:55.331Z,20.77
2018-05-25T09:12:23.037Z,21.80
2018-05-25T09:14:50.534Z,21.87
2018-05-25T09:17:18.127Z,21.77
2018-05-25T09:19:45.577Z,21.87
2018-05-25T09:22:13.256Z,20.47
2018-05-25T09:24:40.880Z,22.70
2018-05-25T09:27:08.359Z,21.40
2018-05-25T09:29:35.867Z,22.20
2018-05-25T09:32:03.304Z,23.47
2018-05-25T09:34:30.753Z,22.17
2018-05-25T09:36:58.200Z,22.73
2018-05-25T09:39:25.662Z,21.20
2018-05-25T09:41:53.287Z,22.43
2018-05-25T09:44:20.936Z,21.23
2018-05-25T09:46:48.399Z,20.43
2018-05-25T09:49:15.848Z,22.27
2018-05-25T09:51:43.385Z,21.97
2018-05-25T09:54:10.842Z,22.93
2018-05-25T09:56:39.234Z,22.63
2018-05-25T09:59:06.707Z,23.40
2018-05-25T10:01:34.160Z,24.63
2018-05-25T10:04:01.826Z,22.90
2018-05-25T10:06:29.359Z,24.37
2018-05-25T10:08:56.928Z,22.93
2018-05-25T10:11:24.468Z,23.80
2018-05-25T10:13:52.044Z,24.13
2018-05-25T10:16:19.519Z,24.10
2018-05-25T10:18:46.982Z,23.73
2018-05-25T10:21:14.617Z,24.30
2018-05-25T10:23:42.163Z,23.70
2018-05-25T10:26:09.620Z,23.37
2018-05-25T10:28:37.073Z,23.27
2018-05-25T10:31:04.640Z,20.97
2018-05-25T10:33:32.202Z,22.03
2018-05-25T10:35:59.643Z,21.30
2018-05-25T10:38:27.299Z,20.57
2018-05-25T10:40:54.787Z,23.10
2018-05-25T10:43:22.350Z,22.97
2018-05-25T10:45:49.973Z,21.17
2018-05-25T10:48:17.481Z,21.93
2018-05-25T10:50:45.100Z,20.70
2018-05-25T10:53:12.560Z,22.07
2018-05-25T10:55:40.038Z,19.60
2018-05-25T10:58:07.488Z,20.57
2018-05-25T11:00:35.150Z,20.43
2018-05-25T11:03:02.619Z,21.07
2018-05-25T11:05:30.137Z,20.10
2018-05-25T11:07:57.712Z,20.83
2018-05-25T11:10:25.381Z,20.70
2018-05-25T11:12:53.049Z,21.23
2018-05-25T11:15:22.191Z,21.37
2018-05-25T11:17:50.624Z,20.43
2018-05-25T11:20:18.276Z,18.93
2018-05-25T11:22:45.938Z,18.70
2018-05-25T11:25:13.398Z,19.37
2018-05-25T11:27:40.848Z,19.07
2018-05-25T11:30:08.523Z,17.47
2018-05-25T11:32:36.041Z,20.63
2018-05-25T11:35:03.635Z,21.13
2018-05-25T11:37:31.298Z,18.33
2018-05-25T11:39:58.961Z,18.70
2018-05-25T11:42:28.055Z,20.30
2018-05-25T11:44:55.699Z,20.03
2018-05-25T11:47:23.362Z,19.07
2018-05-25T11:49:50.833Z,20.17
2018-05-25T11:52:18.344Z,18.07
2018-05-25T11:54:45.804Z,19.47
2018-05-25T11:57:13.265Z,19.20
2018-05-25T11:59:40.841Z,17.37
2018-05-25T12:02:08.512Z,18.50
2018-05-25T12:04:35.965Z,18.13
2018-05-25T12:07:03.412Z,18.10
2018-05-25T12:09:30.955Z,19.93
2018-05-25T12:11:58.525Z,20.87
2018-05-25T12:14:26.052Z,19.40
2018-05-25T12:16:53.666Z,20.13
2018-05-25T12:19:21.127Z,19.40
2018-05-25T12:21:48.641Z,18.73
2018-05-25T12:24:16.217Z,19.37
2018-05-25T12:26:43.871Z,18.93
2018-05-25T12:29:11.532Z,18.33
2018-05-25T12:31:38.981Z,19.87
2018-05-25T12:34:06.488Z,18.07
2018-05-25T12:36:34.504Z,19.10
2018-05-25T12:39:01.976Z,16.97
2018-05-25T12:41:29.529Z,18.37
2018-05-25T12:43:57.211Z,17.07
2018-05-25T12:46:24.666Z,16.03
2018-05-25T12:48:52.166Z,14.20
2018-05-25T12:51:19.678Z,13.93
2018-05-25T12:53:47.466Z,13.43
2018-05-25T12:56:14.968Z,15.47
2018-05-25T12:58:42.521Z,13.87
2018-05-25T13:01:10.105Z,14.20
2018-05-25T13:03:37.587Z,15.00
2018-05-25T13:06:05.044Z,16.03
2018-05-25T13:08:32.669Z,17.80
2018-05-25T13:11:00.203Z,18.13
2018-05-25T13:13:27.663Z,17.63
2018-05-25T13:15:55.146Z,18.33
2018-05-25T13:18:22.660Z,18.03
2018-05-25T13:20:50.893Z,19.67
2018-05-25T13:23:18.348Z,18.50
2018-05-25T13:25:45.797Z,18.60
2018-05-25T13:28:13.558Z,17.30
2018-05-25T13:30:41.028Z,18.27
2018-05-25T13:33:08.665Z,18.00
2018-05-25T13:35:36.139Z,17.00
2018-05-25T13:38:03.580Z,15.90
2018-05-25T13:40:31.844Z,17.00
2018-05-25T13:42:59.513Z,14.47
2018-05-25T13:45:27.256Z,13.93
2018-05-25T13:47:54.720Z,14.33
2018-05-25T13:50:22.183Z,14.50
2018-05-25T13:52:49.758Z,15.53
2018-05-25T13:55:17.688Z,14.97
2018-05-25T13:57:45.431Z,15.90
2018-05-25T14:00:12.992Z,15.00
2018-05-25T14:02:40.585Z,15.17
2018-05-25T14:05:08.041Z,13.80
2018-05-25T14:07:35.577Z,15.97
2018-05-25T14:10:03.108Z,13.43
2018-05-25T14:12:31.438Z,16.07
2018-05-25T14:14:58.910Z,14.13
2018-05-25T14:17:26.389Z,14.77
2018-05-25T14:19:53.982Z,14.50
2018-05-25T14:22:21.684Z,13.90
2018-05-25T14:24:49.232Z,14.37
2018-05-25T14:27:16.674Z,15.67
2018-05-25T14:29:44.270Z,14.80
2018-05-25T14:32:12.381Z,17.87
2018-05-25T14:34:39.974Z,16.30
2018-05-25T14:37:07.443Z,16.70
2018-05-25T14:39:34.901Z,16.53
2018-05-25T14:42:02.443Z,16.30
2018-05-25T14:44:30.205Z,16.03
2018-05-25T14:46:57.748Z,16.33
2018-05-25T14:49:25.332Z,15.67
2018-05-25T14:51:53.255Z,12.20
2018-05-25T14:54:22.065Z,11.37
2018-05-25T14:56:49.579Z,9.87
2018-05-25T14:59:17.022Z,10.40
2018-05-25T15:01:44.637Z,9.43
2018-05-25T15:04:12.182Z,10.80
2018-05-25T15:06:39.644Z,11.80
2018-05-25T15:09:07.308Z,13.27
2018-05-25T15:11:34.883Z,11.70
2018-05-25T15:14:02.546Z,11.93
2018-05-25T15:16:30.215Z,12.63
2018-05-25T15:18:57.869Z,11.80
2018-05-25T15:21:25.528Z,10.87
2018-05-25T15:23:52.981Z,12.40
2018-05-25T15:26:20.657Z,11.73
2018-05-25T15:28:48.289Z,11.30
2018-05-25T15:31:15.951Z,11.30
2018-05-25T15:33:43.509Z,13.60
2018-05-25T15:36:12.888Z,12.07
2018-05-25T15:38:40.443Z,13.13
2018-05-25T15:41:07.905Z,12.13
2018-05-25T15:43:35.492Z,11.50
2018-05-25T15:46:03.021Z,12.20
2018-05-25T15:48:30.556Z,13.53
2018-05-25T15:50:58.824Z,12.50
2018-05-25T15:53:26.476Z,12.10
2018-05-25T15:55:53.936Z,12.77
2018-05-25T15:58:21.938Z,13.90
2018-05-25T16:00:49.533Z,13.63
2018-05-25T16:03:17.207Z,13.47
2018-05-25T16:05:44.680Z,13.30
2018-05-25T16:08:12.398Z,13.57
2018-05-25T16:10:39.979Z,13.43
2018-05-25T16:13:07.483Z,14.10
2018-05-25T16:15:34.973Z,13.07
2018-05-25T16:18:02.559Z,14.20
2018-05-25T16:20:30.021Z,15.20
2018-05-25T16:22:57.653Z,14.10
2018-05-25T16:25:25.309Z,15.60
2018-05-25T16:27:52.774Z,14.10
2018-05-25T16:30:20.437Z,13.30
2018-05-25T16:32:48.003Z,11.23
2018-05-25T16:35:15.445Z,10.23
2018-05-25T16:37:43.024Z,10.63
2018-05-25T16:40:10.547Z,10.17
2018-05-25T16:42:38.001Z,9.67
2018-05-25T16:45:05.451Z,9.40
2018-05-25T16:47:33.028Z,9.90
2018-05-25T16:50:00.687Z,8.90
2018-05-25T16:52:28.132Z,9.73
2018-05-25T16:54:55.805Z,9.17
2018-05-25T16:57:23.240Z,9.00
2018-05-25T16:59:50.935Z,9.60
2018-05-25T17:02:18.379Z,8.47
2018-05-25T17:04:45.820Z,10.63
2018-05-25T17:07:13.323Z,10.50
2018-05-25T17:09:40.963Z,10.43
2018-05-25T17:12:08.497Z,11.00
2018-05-25T17:14:35.940Z,11.10
2018-05-25T17:17:03.402Z,11.33
2018-05-25T17:19:30.994Z,9.87
2018-05-25T17:21:58.543Z,8.27
2018-05-25T17:24:26.807Z,8.40
2018-05-25T17:26:54.388Z,8.47
2018-05-25T17:29:22.062Z,8.43
2018-05-25T17:31:50.311Z,8.30
2018-05-25T17:34:17.839Z,8.23
2018-05-25T17:36:45.301Z,9.57
2018-05-25T17:39:12.881Z,9.70
2018-05-25T17:41:40.430Z,10.03
2018-05-25T17:44:08.004Z,9.47
2018-05-25T17:46:35.479Z,9.50
2018-05-25T17:49:03.104Z,8.73
2018-05-25T17:51:30.773Z,8.00
2018-05-25T17:53:58.272Z,7.47
2018-05-25T17:56:25.883Z,7.33
2018-05-25T17:58:54.332Z,6.00
2018-05-25T18:01:22.352Z,6.37
2018-05-25T18:03:49.815Z,5.50
2018-05-25T18:06:17.802Z,5.37
2018-05-25T18:08:45.416Z,4.73
2018-05-25T18:11:13.093Z,4.63
2018-05-25T18:13:40.545Z,4.43
2018-05-25T18:16:08.210Z,4.50
2018-05-25T18:18:35.956Z,4.33
2018-05-25T18:21:03.395Z,4.27
2018-05-25T18:23:30.836Z,4.30
2018-05-25T18:25:58.329Z,4.87
2018-05-25T18:28:26.029Z,4.53
2018-05-25T18:30:53.484Z,5.20
2018-05-25T18:33:21.765Z,5.00
2018-05-25T18:35:50.075Z,4.90
2018-05-25T18:38:17.774Z,5.73
2018-05-25T18:40:45.250Z,5.67
2018-05-25T18:43:12.722Z,6.00
2018-05-25T18:45:40.356Z,6.50
2018-05-25T18:48:07.865Z,5.77
2018-05-25T18:50:35.441Z,6.13
2018-05-25T18:53:02.992Z,5.80
2018-05-25T18:55:30.476Z,6.47
2018-05-25T18:57:57.930Z,6.30
2018-05-25T19:00:25.491Z,6.97
2018-05-25T19:02:53.035Z,7.23
2018-05-25T19:05:20.628Z,6.72
2018-05-25T19:07:48.118Z,7.87
2018-05-25T19:10:15.805Z,7.97
2018-05-25T19:12:43.298Z,8.23
2018-05-25T19:15:11.543Z,7.67
2018-05-25T19:17:39.115Z,8.27
2018-05-25T19:20:06.830Z,7.70
2018-05-25T19:22:34.277Z,8.47
2018-05-25T19:25:01.893Z,8.67
2018-05-25T19:27:29.559Z,8.67
2018-05-25T19:29:57.216Z,9.33
2018-05-25T19:32:24.707Z,9.07
2018-05-25T19:34:52.341Z,9.07
2018-05-25T19:37:20.004Z,8.30
2018-05-25T19:39:47.650Z,9.90
2018-05-25T19:42:15.319Z,8.07
2018-05-25T19:44:42.956Z,8.33
2018-05-25T19:47:10.624Z,9.43
2018-05-25T19:49:38.115Z,8.70
2018-05-25T19:52:05.752Z,8.80
2018-05-25T19:54:33.286Z,8.47
2018-05-25T19:57:00.867Z,8.63
2018-05-25T19:59:29.198Z,8.30
2018-05-25T20:01:56.653Z,8.90
2018-05-25T20:04:24.349Z,8.77
2018-05-25T20:06:52.017Z,7.90
2018-05-25T20:09:19.634Z,8.77
2018-05-25T20:11:47.333Z,7.87
2018-05-25T20:14:14.920Z,7.60
2018-05-25T20:16:42.447Z,7.23
2018-05-25T20:19:10.039Z,7.00
2018-05-25T20:21:37.820Z,8.00
2018-05-25T20:24:06.068Z,8.50
2018-05-25T20:26:35.088Z,8.70
2018-05-25T20:29:02.765Z,8.73
2018-05-25T20:31:30.270Z,8.27
2018-05-25T20:33:57.741Z,7.63
2018-05-25T20:36:25.182Z,8.40
2018-05-25T20:38:52.672Z,8.43
2018-05-25T20:41:20.257Z,15.47
2018-05-25T20:43:47.747Z,8.63
2018-05-25T20:46:15.231Z,8.70
2018-05-25T20:48:42.761Z,8.33
2018-05-25T20:51:10.423Z,8.00
2018-05-25T20:53:37.875Z,8.40
2018-05-25T20:56:05.374Z,7.57
2018-05-25T20:58:33.445Z,8.00
2018-05-25T21:01:01.053Z,7.43
2018-05-25T21:03:28.558Z,7.70
2018-05-25T21:05:56.107Z,7.80
2018-05-25T21:08:23.610Z,7.80
2018-05-25T21:10:51.301Z,8.23
2018-05-25T21:13:18.748Z,8.47
2018-05-25T21:15:46.503Z,8.50
2018-05-25T21:18:14.514Z,9.30
2018-05-25T21:20:41.974Z,9.00
2018-05-25T21:23:10.033Z,9.53
2018-05-25T21:25:37.535Z,9.43
2018-05-25T21:28:05.239Z,9.37
2018-05-25T21:30:33.060Z,9.77
2018-05-25T21:33:00.668Z,9.40
2018-05-25T21:35:28.340Z,10.00
2018-05-25T21:37:59.097Z,10.10
2018-05-25T21:40:26.593Z,10.40
2018-05-25T21:42:54.103Z,10.03
2018-05-25T21:45:21.615Z,10.57
2018-05-25T21:47:49.280Z,11.33
2018-05-25T21:50:16.917Z,11.97
2018-05-25T21:52:45.625Z,11.73
2018-05-25T21:55:13.280Z,10.80
2018-05-25T21:57:40.828Z,11.80
2018-05-25T22:00:08.367Z,11.97
2018-05-25T22:02:35.871Z,11.70
2018-05-25T22:05:03.533Z,10.97
2018-05-25T22:07:31.863Z,11.70
2018-05-25T22:09:59.435Z,11.93
2018-05-25T22:12:27.404Z,11.90
2018-05-25T22:14:56.897Z,11.77
2018-05-25T22:17:24.379Z,12.40
2018-05-25T22:19:51.942Z,12.13
2018-05-25T22:22:19.820Z,13.03
2018-05-25T22:24:47.537Z,12.50
2018-05-25T22:27:15.060Z,13.77
2018-05-25T22:29:42.866Z,13.40
2018-05-25T22:32:10.399Z,13.73
2018-05-25T22:34:38.788Z,14.03
2018-05-25T22:37:06.293Z,14.35
2018-05-25T22:39:34.558Z,13.63
2018-05-25T22:42:02.558Z,14.57
2018-05-25T22:44:42.040Z,15.47
2018-05-25T22:47:22.367Z,15.83
2018-05-25T22:50:02.040Z,15.70
2018-05-25T22:52:34.609Z,16.17
2018-05-25T22:55:02.115Z,15.40
2018-05-25T22:57:29.650Z,15.57
2018-05-25T22:59:57.327Z,16.60
2018-05-25T23:02:24.972Z,16.63
2018-05-25T23:04:52.514Z,16.77
2018-05-25T23:07:19.971Z,16.33
2018-05-25T23:09:47.570Z,16.60
2018-05-25T23:12:15.209Z,17.77
2018-05-25T23:14:42.738Z,16.13
2018-05-25T23:17:10.336Z,16.00
2018-05-25T23:19:37.990Z,16.60
2018-05-25T23:22:05.658Z,16.87
2018-05-25T23:24:33.104Z,17.87
2018-05-25T23:27:00.647Z,17.77
2018-05-25T23:29:28.434Z,17.80
2018-05-25T23:31:56.082Z,18.03
2018-05-25T23:34:23.819Z,18.53
2018-05-25T23:36:51.275Z,17.93
2018-05-25T23:39:18.856Z,18.30
2018-05-25T23:41:46.412Z,18.40
2018-05-25T23:44:14.001Z,18.53
2018-05-25T23:46:41.636Z,18.57
2018-05-25T23:49:09.094Z,18.07
2018-05-25T23:51:36.625Z,17.37
2018-05-25T23:54:04.241Z,18.00
2018-05-25T23:56:33.341Z,18.63
2018-05-25T23:59:00.861Z,18.60
